CA-0666 weather

Duplicate - Morrison Lake Seaplane Base
Gravenhurst, Ontario, Canada

Public forecast

Using degrees Celsius for public forecast. Weather courtesy of forecast.io.

Closest aviation weather report (METAR) to Duplicate - Morrison Lake Seaplane Base

Closest report is Muskoka Airport, 9.2 nm (17.0 km) NE. Retrieved 2019/12/10 21:00 UTC (20 minutes ago):

CYQA 102100Z AUTO 28010G17KT 250V320 9SM CLR M10/M15 A2994 RMK PRESRR SLP156

Closest aviation forecast (TAF) to Duplicate - Morrison Lake Seaplane Base

Closest forecast is Muskoka Airport, 9.2 nm (17.0 km) NE. Retrieved 2019/12/10 20:00 UTC (1 hour ago):

TAF CYQA 101938Z 1020/1103 29012G22KT P6SM SCT020 BKN070 TEMPO 1020/1021 P6SM -SN BKN020 OVC070 FM102100 30010G20KT P6SM SCT020 TEMPO 1021/1103 BKN020 BECMG 1022/1024 32006KT RMK FCST BASED ON AUTO OBS NXT FCST WILL BE ISSUED AT 111245Z